New Underwood, South Dakota
Current Conditions -  °F | °C
As of 7:52 PM on Monday 20 Oct 2014 (Local Time) from KRAP Reporting Station
Clear Clear  
Wind Chill: 56°   Ceiling: Unl
Heat Index: 56°   Visibility: 10mi
Dew Point: 44°   Wind: 0mph
Humidity: 64%   Direction: NA
Pressure: 29.91"   Gusts: NA
Location:  44.09°N, 102.84°W
Report Text: KRAP 210152Z 00000KT 10SM CLR 13/07 A2991 RMK AO2 SLP130 T01330067
Loading
Personal Weather Stations






























Interactive Weather Map
Tropical Storm Tracking
New forecast layout! Learn more

10-Day Weather Forecast

Advertisements
Track Severe Weather on mobile